White Marsh, Maryland
Current Conditions -  °F | °C
As of 7:55 AM on Saturday 20 Dec 2014 (Local Time) from KMTN Reporting Station
Scattered Clouds Scattered Clouds  
Wind Chill: 23°   Ceiling: Unl
Heat Index: 28°   Visibility: 10mi
Dew Point: 23°   Wind: 5mph
Humidity: 80%   Direction: 300°WNW
Pressure: 30.31"   Gusts: NA
Location:  39.39°N, 76.41°W
Report Text: KMTN 201255Z 30004KT 10SM SCT180 M02/M05 A3031
Loading
Personal Weather Stations






























Interactive Weather Map New forecast layout! Learn more

10-Day Weather Forecast

Advertisements
Track Severe Weather on mobile